Piper Inness — WDC3984 — position and weather

sailwx.info

Track history (hours):
 
Tides and Currents Weather Stations Pressure Air Temp Water Temp Dewpoint Dewpoint Depression Visibility Wind Speed Wind Dir Waves Ship Positions

Piper Inness

Owner: Foss Maritime Co, Seattle, WA. More information available from US FCC via Universal Licensing System and Coast Guard Vessel Documentation Center.

Last reported at 2018-Jan-21 18:00 UTC. Time now 2018-Jan-21 18:14 UTC.
Position N 33°01' W 117°49'.

; draft 2 m.

Type: Other ship. MMSI: 367017440.

Date/timePositionNaut miles runAvg speedWind from/ knotsBaromVisibWave heightAir tempDewpointWater temp
2018-Jan-21 18:00N 33°01' W 117°49'2 4.5
2018-Jan-21 17:30N 33°02' W 117°51'2 4.9
2018-Jan-21 17:00N 33°03' W 117°54'2 4.8
2018-Jan-21 16:30N 33°06' W 117°55'3 4.7
2018-Jan-21 15:55N 33°08' W 117°56'2 4.6
2018-Jan-21 15:28N 33°10' W 117°56'1 2.7
2018-Jan-21 15:00N 33°10' W 117°57'  
2018-Jan-18 23:05N 33°46' W 118°13'0 0.0
2018-Jan-18 23:00N 33°46' W 118°13'0 0.0
2018-Jan-18 21:21N 33°46' W 118°13'10 0.5
2018-Jan-18 01:36N 33°38' W 118°08'317.0
2018-Jan-18 01:27N 33°35' W 118°06'1017.0
2018-Jan-18 00:51N 33°26' W 118°01'1417.1
2018-Jan-18 00:00N 33°13' W 117°53'116.9
2018-Jan-17 23:56N 33°12' W 117°53'  
Track history (hours):
 
Tides and Currents Weather Stations Pressure Air Temp Water Temp Dewpoint Dewpoint Depression Visibility Wind Speed Wind Dir Waves Ship Positions

Piper Inness

Owner: Foss Maritime Co, Seattle, WA. More information available from US FCC via Universal Licensing System and Coast Guard Vessel Documentation Center.

Last reported at 2018-Jan-21 18:00 UTC. Time now 2018-Jan-21 18:14 UTC.
Position N 33°01' W 117°49'.

; draft 2 m.

Type: Other ship. MMSI: 367017440.

Date/timePositionNaut miles runAvg speedWind from/ knotsBaromVisibWave heightAir tempDewpointWater temp
2018-Jan-21 18:00N 33°01' W 117°49'2 4.5
2018-Jan-21 17:30N 33°02' W 117°51'2 4.9
2018-Jan-21 17:00N 33°03' W 117°54'2 4.8
2018-Jan-21 16:30N 33°06' W 117°55'3 4.7
2018-Jan-21 15:55N 33°08' W 117°56'2 4.6
2018-Jan-21 15:28N 33°10' W 117°56'1 2.7
2018-Jan-21 15:00N 33°10' W 117°57'  
2018-Jan-18 23:05N 33°46' W 118°13'0 0.0
2018-Jan-18 23:00N 33°46' W 118°13'0 0.0
2018-Jan-18 21:21N 33°46' W 118°13'10 0.5
2018-Jan-18 01:36N 33°38' W 118°08'317.0
2018-Jan-18 01:27N 33°35' W 118°06'1017.0
2018-Jan-18 00:51N 33°26' W 118°01'1417.1
2018-Jan-18 00:00N 33°13' W 117°53'116.9
2018-Jan-17 23:56N 33°12' W 117°53'  

Dump ship's entire track history